Time;durP1;ratioP1;P1;durP2;ratioP2;P2;SDS_P1;SDS_P2;PMS_P1;PMS_P2;Temp;Humidity;BMP_temperature;BMP_pressure;BME280_temperature;BME280_humidity;BME280_pressure;Samples;Min_cycle;Max_cycle;Signal;HPM_P1;HPM_P2
2021/03/21 00:00:42;;;;;;;159.13;60.97;;;-8.90;81.50;;;;;;5010788;28;20052;-84
2021/03/21 00:03:08;;;;;;;176.33;66.30;;;-9.00;81.20;;;;;;5011758;28;20080;-83
2021/03/21 00:05:34;;;;;;;185.93;67.07;;;-9.00;81.70;;;;;;5003247;28;20027;-84
2021/03/21 00:08:04;;;;;;;159.30;60.10;;;-9.00;82.90;;;;;;5001172;28;20018;-83
2021/03/21 00:10:31;;;;;;;166.23;67.00;;;-9.00;83.50;;;;;;5014559;28;20057;-82
2021/03/21 00:12:58;;;;;;;185.63;66.53;;;-9.10;82.80;;;;;;5001553;28;20042;-84
2021/03/21 00:15:25;;;;;;;197.60;67.90;;;-9.10;82.40;;;;;;5000926;28;20022;-83
2021/03/21 00:17:51;;;;;;;229.10;74.70;;;-9.10;82.90;;;;;;4982222;28;20118;-83
2021/03/21 00:20:20;;;;;;;214.37;76.50;;;-9.10;83.00;;;;;;4992874;28;20022;-83
2021/03/21 00:22:46;;;;;;;251.10;82.60;;;-9.10;83.50;;;;;;4998586;28;20102;-84
2021/03/21 00:25:15;;;;;;;263.93;88.90;;;-9.20;84.10;;;;;;4974186;28;20035;-82
2021/03/21 00:27:41;;;;;;;235.57;84.63;;;-9.20;84.40;;;;;;5007510;28;20034;-83
2021/03/21 00:30:12;;;;;;;201.93;73.90;;;-9.20;84.30;;;;;;4979546;28;20026;-84
2021/03/21 00:32:37;;;;;;;217.80;77.37;;;-9.20;84.50;;;;;;4974053;28;20121;-83
2021/03/21 00:35:04;;;;;;;189.53;69.13;;;-9.20;84.50;;;;;;4992099;28;20109;-85
2021/03/21 00:37:30;;;;;;;182.10;65.17;;;-9.20;84.60;;;;;;4976041;28;20558;-83
2021/03/21 00:39:55;;;;;;;186.40;63.60;;;-9.20;85.80;;;;;;4975904;28;20117;-86
2021/03/21 00:42:21;;;;;;;171.77;63.27;;;-9.20;86.70;;;;;;4975441;28;20121;-83
2021/03/21 00:44:47;;;;;;;168.00;64.00;;;-9.20;86.90;;;;;;4973510;28;20119;-84
2021/03/21 00:47:12;;;;;;;163.67;62.33;;;-9.30;86.20;;;;;;4990846;28;20089;-81
2021/03/21 00:49:38;;;;;;;152.87;59.30;;;-9.30;85.90;;;;;;4991112;28;20030;-82
2021/03/21 00:52:04;;;;;;;167.17;60.03;;;-9.30;85.40;;;;;;4973199;28;20455;-81
2021/03/21 00:54:30;;;;;;;155.87;62.57;;;-9.30;85.50;;;;;;4991298;28;20030;-83
2021/03/21 00:56:55;;;;;;;173.77;62.23;;;-9.30;85.70;;;;;;4989524;28;20373;-84
2021/03/21 00:59:21;;;;;;;167.27;59.43;;;-9.30;85.60;;;;;;4974526;28;20472;-83
2021/03/21 01:01:46;;;;;;;208.17;76.87;;;-9.30;85.50;;;;;;4991083;28;20110;-81
2021/03/21 01:04:13;;;;;;;182.43;64.40;;;-9.30;85.20;;;;;;4975345;28;20042;-84
2021/03/21 01:06:39;;;;;;;147.43;56.13;;;-9.30;85.30;;;;;;4993025;28;20389;-83
2021/03/21 01:09:12;;;;;;;141.60;55.90;;;-9.30;85.30;;;;;;4989921;28;20022;-81
2021/03/21 01:11:39;;;;;;;147.07;52.33;;;-9.40;84.80;;;;;;4990843;28;20034;-84
2021/03/21 01:14:07;;;;;;;133.07;51.10;;;-9.40;85.20;;;;;;4975750;28;20424;-85
2021/03/21 01:16:38;;;;;;;144.23;52.07;;;-9.40;85.00;;;;;;4991636;28;20038;-83
2021/03/21 01:19:07;;;;;;;143.37;53.07;;;-9.50;86.10;;;;;;4989203;28;20019;-84
2021/03/21 01:21:34;;;;;;;130.93;53.70;;;-9.50;86.50;;;;;;4973129;28;20058;-83
2021/03/21 01:24:00;;;;;;;152.20;53.03;;;-9.50;86.80;;;;;;4992989;28;20030;-83
2021/03/21 01:26:28;;;;;;;129.40;54.47;;;-9.50;86.10;;;;;;4993100;28;20098;-83
2021/03/21 01:28:58;;;;;;;162.10;56.90;;;-9.50;86.40;;;;;;4975357;28;20031;-84
2021/03/21 01:31:25;;;;;;;154.77;55.93;;;-9.50;86.50;;;;;;4992927;28;20030;-83
2021/03/21 01:33:52;;;;;;;140.57;54.17;;;-9.50;86.20;;;;;;4976181;28;20023;-83
2021/03/21 01:36:32;;;;;;;151.40;54.37;;;-9.50;86.00;;;;;;4996122;28;20023;-83
2021/03/21 01:39:01;;;;;;;131.93;54.07;;;-9.40;85.40;;;;;;4996497;28;20029;-83
2021/03/21 01:41:30;;;;;;;141.07;56.10;;;-9.40;84.90;;;;;;4996564;28;20019;-84
2021/03/21 01:43:56;;;;;;;139.83;54.13;;;-9.50;85.00;;;;;;4978812;28;20113;-85
2021/03/21 01:46:34;;;;;;;141.43;53.07;;;-9.50;85.00;;;;;;4996177;28;20571;-83
2021/03/21 01:49:04;;;;;;;137.17;51.30;;;-9.50;85.60;;;;;;4996032;28;20022;-83
2021/03/21 01:51:38;;;;;;;150.27;53.47;;;-9.50;86.30;;;;;;4978501;28;20466;-83
2021/03/21 01:54:09;;;;;;;143.27;56.10;;;-9.50;87.20;;;;;;4977069;28;20015;-83
2021/03/21 01:56:38;;;;;;;142.50;51.50;;;-9.50;86.20;;;;;;4978727;28;20034;-82
2021/03/21 01:59:08;;;;;;;153.07;55.13;;;-9.50;86.00;;;;;;4995837;28;20030;-85
2021/03/21 02:01:34;;;;;;;156.73;58.33;;;-9.50;85.40;;;;;;4978380;28;20037;-84
2021/03/21 02:03:59;;;;;;;146.20;56.00;;;-9.50;85.90;;;;;;4978403;28;20038;-83
2021/03/21 02:06:39;;;;;;;157.00;55.87;;;-9.50;86.10;;;;;;4995537;28;20030;-83
2021/03/21 02:09:17;;;;;;;156.93;54.07;;;-9.50;85.90;;;;;;4978467;28;20034;-83
2021/03/21 02:12:04;;;;;;;154.37;55.43;;;-9.60;86.50;;;;;;4995642;28;20085;-83
2021/03/21 02:14:48;;;;;;;141.97;50.47;;;-9.50;87.10;;;;;;4976402;28;20034;-82
2021/03/21 02:17:22;;;;;;;127.83;47.37;;;-9.50;87.10;;;;;;4976463;28;20028;-82
2021/03/21 02:19:57;;;;;;;128.27;47.27;;;-9.50;87.30;;;;;;4991267;28;20061;-82
2021/03/21 02:22:29;;;;;;;135.87;47.13;;;-9.60;89.60;;;;;;4995784;28;20030;-82
2021/03/21 02:25:07;;;;;;;104.82;37.40;;;-9.50;91.40;;;;;;4995696;28;20113;-81
2021/03/21 02:28:05;;;;;;;134.83;49.30;;;-9.50;91.80;;;;;;4995683;28;20388;-82
2021/03/21 02:30:38;;;;;;;115.27;45.20;;;-9.50;91.30;;;;;;4978108;28;20026;-81
2021/03/21 02:33:03;;;;;;;;;;;-9.50;91.80;;;;;;4978155;28;20038;-83
2021/03/21 02:35:46;;;;;;;128.77;43.70;;;-9.40;91.60;;;;;;5010270;28;19993;-83
2021/03/21 02:38:30;;;;;;;132.60;44.53;;;-9.40;91.20;;;;;;4995453;28;20058;-84
2021/03/21 02:41:04;;;;;;;144.23;46.03;;;-9.40;91.30;;;;;;4977906;28;20081;-84
2021/03/21 02:43:30;;;;;;;133.17;47.13;;;-9.40;92.20;;;;;;4995323;28;20489;-82
2021/03/21 02:46:00;;;;;;;130.30;48.23;;;-9.40;92.50;;;;;;4976828;28;20093;-81
2021/03/21 02:48:41;;;;;;;104.00;37.77;;;-9.40;94.20;;;;;;4995228;28;20065;-82
2021/03/21 02:51:14;;;;;;;120.80;42.17;;;-9.40;95.20;;;;;;4994957;28;20420;-82
2021/03/21 02:53:45;;;;;;;143.03;49.30;;;-9.40;95.70;;;;;;4977729;28;20034;-83
2021/03/21 02:56:18;;;;;;;128.17;47.43;;;-9.30;95.50;;;;;;4994592;28;20034;-83
2021/03/21 02:58:50;;;;;;;133.23;49.00;;;-9.30;97.30;;;;;;4994786;28;20046;-84
2021/03/21 03:01:27;;;;;;;138.17;47.63;;;-9.20;97.60;;;;;;4994967;28;20030;-81
2021/03/21 03:03:58;;;;;;;125.87;46.73;;;-9.20;96.80;;;;;;4993534;28;20520;-83
2021/03/21 03:06:37;;;;;;;113.13;44.30;;;-9.20;94.70;;;;;;4977247;28;20030;-81
2021/03/21 03:09:12;;;;;;;133.33;43.97;;;-9.20;92.10;;;;;;4994823;28;20033;-81
2021/03/21 03:11:45;;;;;;;120.00;42.67;;;-9.30;88.80;;;;;;4977411;28;20117;-82
2021/03/21 03:14:14;;;;;;;135.35;48.45;;;-9.40;86.80;;;;;;4977221;28;20069;-83
2021/03/21 03:17:01;;;;;;;128.63;47.47;;;-9.40;85.70;;;;;;4975485;28;20081;-82
2021/03/21 03:19:53;;;;;;;126.80;45.87;;;-9.50;85.60;;;;;;4994720;28;20110;-84
2021/03/21 03:22:44;;;;;;;133.27;47.00;;;-9.50;85.60;;;;;;4989642;28;20039;-83
2021/03/21 03:25:31;;;;;;;109.90;44.57;;;-9.50;85.60;;;;;;4976710;28;20054;-81
2021/03/21 03:27:59;;;;;;;111.57;42.80;;;-9.50;86.20;;;;;;4977077;28;20380;-83
2021/03/21 03:30:44;;;;;;;112.40;44.83;;;-9.60;86.00;;;;;;4994413;28;20034;-84
2021/03/21 03:33:10;;;;;;;126.93;46.67;;;-9.60;86.60;;;;;;4976003;28;20042;-84
2021/03/21 03:35:36;;;;;;;133.03;44.03;;;-9.60;88.30;;;;;;4976940;28;20022;-83
2021/03/21 03:38:05;;;;;;;124.90;44.67;;;-9.60;89.50;;;;;;4993210;28;20085;-84
2021/03/21 03:40:31;;;;;;;125.87;47.47;;;-9.60;89.10;;;;;;4994160;28;20026;-84
2021/03/21 03:43:30;;;;;;;118.10;44.77;;;-9.70;89.20;;;;;;4976706;28;20476;-83
2021/03/21 03:46:15;;;;;;;130.53;42.20;;;-9.70;88.80;;;;;;4988287;28;20484;-84
2021/03/21 03:49:11;;;;;;;134.30;43.37;;;-9.70;89.40;;;;;;4994251;28;20026;-83
2021/03/21 03:52:10;;;;;;;129.13;44.30;;;-9.80;89.70;;;;;;4992788;28;20041;-84
2021/03/21 03:55:30;;;;;;;123.87;42.13;;;-9.80;91.80;;;;;;4976448;28;20030;-84
2021/03/21 03:58:15;;;;;;;133.93;42.33;;;-9.90;94.10;;;;;;4952961;28;20035;-84
2021/03/21 04:00:50;;;;;;;124.07;45.53;;;-9.90;94.30;;;;;;4976454;28;20130;-84
2021/03/21 04:03:54;;;;;;;141.67;47.27;;;-9.90;93.80;;;;;;4976359;28;20088;-83
2021/03/21 04:06:33;;;;;;;116.05;40.80;;;-9.80;92.40;;;;;;4992606;28;20036;-83
2021/03/21 04:09:26;;;;;;;139.07;45.10;;;-9.80;91.70;;;;;;4976243;28;20062;-84
2021/03/21 04:12:05;;;;;;;143.38;46.67;;;-9.80;91.40;;;;;;4972818;28;20057;-84
2021/03/21 04:14:41;;;;;;;125.37;44.07;;;-9.80;90.60;;;;;;4988311;28;20064;-83
2021/03/21 04:17:26;;;;;;;137.83;45.37;;;-9.80;91.10;;;;;;4992055;28;20050;-83
2021/03/21 04:19:59;;;;;;;137.47;45.70;;;-9.80;91.60;;;;;;4993606;28;20030;-83
2021/03/21 04:22:27;;;;;;;;;;;-9.70;91.50;;;;;;4994155;28;20057;-84
2021/03/21 04:24:59;;;;;;;109.00;38.03;;;-9.70;91.90;;;;;;5008662;28;20367;-84
2021/03/21 04:27:30;;;;;;;111.37;43.97;;;-9.70;92.30;;;;;;4992484;28;20102;-84
2021/03/21 04:30:00;;;;;;;118.03;45.73;;;-9.70;93.10;;;;;;4993505;28;20029;-85
2021/03/21 04:32:32;;;;;;;120.97;46.03;;;-9.70;93.10;;;;;;4976042;28;20415;-84
2021/03/21 04:35:04;;;;;;;127.90;45.70;;;-9.60;93.20;;;;;;4976015;28;20429;-84
2021/03/21 04:37:30;;;;;;;127.03;46.35;;;-9.60;93.60;;;;;;4993592;28;20058;-84
2021/03/21 04:39:58;;;;;;;120.73;47.93;;;-9.50;93.60;;;;;;4975978;28;20065;-83
2021/03/21 04:42:47;;;;;;;127.27;45.07;;;-9.50;94.00;;;;;;4975757;28;20030;-83
2021/03/21 04:45:17;;;;;;;106.67;41.70;;;-9.50;95.10;;;;;;4975852;28;20031;-83
2021/03/21 04:48:01;;;;;;;116.00;43.47;;;-9.50;96.50;;;;;;4993173;28;20064;-83
2021/03/21 04:50:29;;;;;;;111.17;43.03;;;-9.40;96.80;;;;;;4975047;28;20023;-85
2021/03/21 04:53:21;;;;;;;112.67;42.20;;;-9.30;98.10;;;;;;4993043;28;20070;-83
2021/03/21 04:56:19;;;;;;;120.63;47.72;;;-9.20;98.30;;;;;;4987646;28;20046;-85
2021/03/21 04:58:58;;;;;;;151.63;51.60;;;-9.00;99.90;;;;;;4993314;28;20022;-85
2021/03/21 05:01:34;;;;;;;115.00;43.87;;;-8.90;99.90;;;;;;4975961;28;20549;-83
2021/03/21 05:04:21;;;;;;;114.13;40.50;;;-8.80;99.90;;;;;;4993403;28;20033;-83
2021/03/21 05:06:56;;;;;;;99.20;38.00;;;-8.60;99.90;;;;;;4993318;28;20038;-83
2021/03/21 05:09:26;;;;;;;83.07;34.13;;;-8.50;99.90;;;;;;4977454;28;20022;-83
2021/03/21 05:12:03;;;;;;;82.23;35.17;;;-8.30;99.90;;;;;;4996992;28;20465;-83
2021/03/21 05:14:40;;;;;;;84.13;30.63;;;-8.20;99.90;;;;;;4979456;28;20030;-83
2021/03/21 05:17:35;;;;;;;83.63;31.87;;;-8.10;99.90;;;;;;4996509;28;20027;-83
2021/03/21 05:20:25;;;;;;;72.03;29.73;;;-7.90;99.90;;;;;;4996804;28;20029;-82
2021/03/21 05:23:19;;;;;;;81.03;31.77;;;-7.70;99.90;;;;;;4975975;28;20042;-82
2021/03/21 05:25:55;;;;;;;74.00;27.40;;;-7.50;99.90;;;;;;4996719;28;20421;-81
2021/03/21 05:29:01;;;;;;;69.90;27.83;;;-7.30;99.90;;;;;;4978896;28;20077;-84
2021/03/21 05:31:27;;;;;;;59.60;24.33;;;-7.10;99.90;;;;;;4996788;28;20077;-82
2021/03/21 05:33:53;;;;;;;71.53;27.23;;;-7.00;99.90;;;;;;4979175;28;20061;-84
2021/03/21 05:36:44;;;;;;;51.63;23.20;;;-6.80;99.90;;;;;;4996544;28;20106;-83
2021/03/21 05:39:32;;;;;;;46.27;22.23;;;-6.70;99.90;;;;;;4978237;28;20035;-83
2021/03/21 05:42:38;;;;;;;47.83;22.63;;;-6.50;99.90;;;;;;4978392;28;20060;-82
2021/03/21 05:45:41;;;;;;;43.40;19.73;;;-6.40;99.90;;;;;;4996378;28;20053;-82
2021/03/21 05:48:33;;;;;;;;;;;-6.20;99.90;;;;;;4996401;28;20027;-82
2021/03/21 05:51:20;;;;;;;34.87;16.93;;;-6.00;99.90;;;;;;4978816;28;20008;-82
2021/03/21 05:53:51;;;;;;;28.83;14.47;;;-5.90;99.90;;;;;;4978595;28;20026;-82
2021/03/21 05:56:53;;;;;;;32.40;15.07;;;-5.80;96.60;;;;;;4976781;28;20481;-81
2021/03/21 05:59:33;;;;;;;25.20;13.07;;;-5.70;95.40;;;;;;4963298;28;20022;-81
2021/03/21 06:01:58;;;;;;;27.47;12.60;;;-5.60;89.20;;;;;;4978177;28;20512;-82
2021/03/21 06:04:54;;;;;;;26.57;14.63;;;-5.60;88.40;;;;;;4989184;28;20065;-81
2021/03/21 06:07:44;;;;;;;24.67;11.53;;;-5.50;87.60;;;;;;4992838;28;20093;-81
2021/03/21 06:10:47;;;;;;;25.97;11.97;;;-5.40;86.80;;;;;;4994428;28;20069;-82
2021/03/21 06:13:34;;;;;;;23.52;11.48;;;-5.30;85.70;;;;;;5027401;28;20038;-82
2021/03/21 06:16:18;;;;;;;19.87;11.50;;;-5.20;84.90;;;;;;4993228;28;20042;-82
2021/03/21 06:19:13;;;;;;;22.70;10.50;;;-5.10;83.00;;;;;;5010153;28;20046;-81
2021/03/21 06:21:51;;;;;;;20.83;10.37;;;-5.00;80.00;;;;;;4994628;28;20042;-82
2021/03/21 06:25:08;;;;;;;23.47;9.67;;;-4.90;78.70;;;;;;4995501;28;20365;-81
2021/03/21 06:28:13;;;;;;;25.30;10.33;;;-4.80;77.80;;;;;;4970770;28;20124;-81
2021/03/21 06:30:46;;;;;;;15.97;9.20;;;-4.70;76.70;;;;;;4992783;28;20100;-81
2021/03/21 06:33:34;;;;;;;14.82;9.18;;;-4.60;75.60;;;;;;5009707;28;20038;-82
2021/03/21 06:36:33;;;;;;;19.00;10.03;;;-4.50;74.60;;;;;;4995366;28;20026;-82
2021/03/21 06:39:27;;;;;;;24.57;9.70;;;-4.40;75.90;;;;;;5015576;28;20054;-81
2021/03/21 06:42:24;;;;;;;18.10;8.73;;;-4.30;75.70;;;;;;4971175;28;20050;-82
2021/03/21 06:45:08;;;;;;;14.93;9.23;;;-4.20;74.00;;;;;;4995647;28;20109;-82
2021/03/21 06:48:09;;;;;;;22.50;9.40;;;-4.10;71.90;;;;;;5019373;28;20487;-82
2021/03/21 06:51:00;;;;;;;20.37;9.70;;;-4.00;71.20;;;;;;4978238;28;20045;-81
2021/03/21 06:54:17;;;;;;;16.83;8.30;;;-3.90;71.10;;;;;;4995268;28;20085;-83
2021/03/21 06:57:04;;;;;;;16.33;8.50;;;-3.80;69.60;;;;;;4961991;28;20042;-82
2021/03/21 07:00:06;;;;;;;14.80;8.03;;;-3.80;69.00;;;;;;4994537;28;20034;-82
2021/03/21 07:02:50;;;;;;;13.52;8.57;;;-3.70;71.00;;;;;;4977351;28;20391;-82
2021/03/21 07:05:51;;;;;;;16.27;7.70;;;-3.60;70.10;;;;;;5009118;28;20034;-82
2021/03/21 07:08:30;;;;;;;11.77;6.97;;;-3.50;69.20;;;;;;5020820;28;20042;-81
2021/03/21 07:10:56;;;;;;;21.90;8.00;;;-3.50;67.70;;;;;;4998643;28;20081;-81
2021/03/21 07:13:36;;;;;;;16.88;8.27;;;-3.50;67.10;;;;;;5007908;28;20038;-82
2021/03/21 07:16:14;;;;;;;16.25;7.88;;;-3.40;66.60;;;;;;4996660;28;20606;-81
2021/03/21 07:19:12;;;;;;;12.25;6.93;;;-3.40;66.20;;;;;;4984288;28;20061;-80
2021/03/21 07:21:57;;;;;;;21.15;9.27;;;-3.30;66.00;;;;;;4972373;28;20031;-79
2021/03/21 07:24:56;;;;;;;14.35;6.30;;;-3.10;67.10;;;;;;5006649;28;20040;-79
2021/03/21 07:27:44;;;;;;;12.73;6.80;;;-3.20;64.50;;;;;;4994287;28;20058;-81
2021/03/21 07:30:33;;;;;;;17.90;8.60;;;-3.10;64.60;;;;;;5008870;28;20030;-82
2021/03/21 07:33:20;;;;;;;20.17;7.45;;;-3.10;64.40;;;;;;5008947;28;20133;-81
2021/03/21 07:36:25;;;;;;;13.35;7.03;;;-3.00;63.90;;;;;;4973614;28;20489;-81
2021/03/21 07:39:24;;;;;;;14.98;7.55;;;-3.00;64.10;;;;;;4914839;29;20393;-83
2021/03/21 07:41:50;;;;;;;19.30;8.30;;;-3.00;62.90;;;;;;4976633;28;20499;-79
2021/03/21 07:44:18;;;;;;;10.93;6.57;;;-2.90;63.00;;;;;;5008952;28;20030;-80
2021/03/21 07:46:53;;;;;;;13.27;6.03;;;-2.90;63.50;;;;;;5009010;28;20500;-79
2021/03/21 07:49:41;;;;;;;10.48;6.03;;;-2.90;62.80;;;;;;4993852;28;20461;-79
2021/03/21 07:52:33;;;;;;;10.98;6.38;;;-2.80;62.70;;;;;;4975012;28;20666;-81
2021/03/21 07:55:06;;;;;;;11.93;6.65;;;-2.80;62.40;;;;;;4992495;28;20030;-81
2021/03/21 07:57:40;;;;;;;;;;;-2.70;61.90;;;;;;4992100;28;20483;-81
2021/03/21 08:00:09;;;;;;;13.75;7.03;;;-2.70;61.80;;;;;;5004488;28;19939;-81
2021/03/21 08:02:34;;;;;;;12.25;6.75;;;-2.60;62.20;;;;;;4974887;28;20031;-80
2021/03/21 08:05:22;;;;;;;16.50;7.82;;;-2.50;62.20;;;;;;4973179;28;20075;-83
2021/03/21 08:07:50;;;;;;;16.08;8.48;;;-2.40;62.20;;;;;;4989580;28;20365;-82
2021/03/21 08:10:31;;;;;;;14.10;5.88;;;-2.40;62.00;;;;;;4975218;28;20109;-81
2021/03/21 08:13:04;;;;;;;12.48;6.40;;;-2.40;62.40;;;;;;4975421;28;20042;-81
2021/03/21 08:15:34;;;;;;;15.57;7.82;;;-2.40;63.20;;;;;;4975166;28;20026;-81
2021/03/21 08:18:03;;;;;;;17.25;8.23;;;-2.30;64.40;;;;;;4975123;28;20113;-80
2021/03/21 08:20:47;;;;;;;18.45;9.38;;;-2.40;67.50;;;;;;4992708;28;20106;-81
2021/03/21 08:23:20;;;;;;;17.60;7.28;;;-2.50;68.90;;;;;;4973805;28;20030;-81
2021/03/21 08:25:47;;;;;;;16.10;7.90;;;-2.40;70.20;;;;;;4991933;28;20548;-81
2021/03/21 08:28:20;;;;;;;13.98;7.50;;;-2.40;71.60;;;;;;4992192;28;20024;-80
2021/03/21 08:30:51;;;;;;;35.10;14.55;;;-2.40;72.30;;;;;;4974482;28;20046;-83
2021/03/21 08:33:33;;;;;;;14.23;8.23;;;-2.50;74.90;;;;;;4974305;28;20496;-80
2021/03/21 08:36:07;;;;;;;13.77;8.10;;;-2.30;75.30;;;;;;4988025;28;20173;-80
2021/03/21 08:38:34;;;;;;;17.80;8.57;;;-2.20;77.20;;;;;;4992339;28;20374;-81
2021/03/21 08:41:02;;;;;;;17.77;8.27;;;-2.20;77.00;;;;;;4991505;28;20097;-80
2021/03/21 08:43:32;;;;;;;14.73;8.82;;;-2.10;79.60;;;;;;4974602;28;20018;-80
2021/03/21 08:46:01;;;;;;;15.65;8.00;;;-2.10;78.30;;;;;;4978710;28;20069;-80
2021/03/21 08:48:33;;;;;;;23.33;9.75;;;-2.10;78.50;;;;;;4990536;28;20045;-80
2021/03/21 08:51:19;;;;;;;16.63;8.32;;;-2.10;79.50;;;;;;4987995;28;20018;-81
2021/03/21 08:53:57;;;;;;;13.35;6.25;;;-2.10;80.60;;;;;;4976089;28;20054;-80
2021/03/21 08:56:29;;;;;;;11.68;7.32;;;-2.20;82.80;;;;;;4989785;28;20476;-81
2021/03/21 08:59:09;;;;;;;24.10;11.65;;;-2.20;82.10;;;;;;4996169;28;20065;-80
2021/03/21 09:01:36;;;;;;;34.30;15.73;;;-2.20;85.80;;;;;;4993963;28;20512;-81
2021/03/21 09:04:13;;;;;;;39.50;19.13;;;-2.20;85.50;;;;;;4977508;28;20034;-81
2021/03/21 09:06:42;;;;;;;39.17;16.65;;;-2.10;87.80;;;;;;4990907;28;20027;-80
2021/03/21 09:09:33;;;;;;;76.68;29.20;;;-2.10;89.90;;;;;;4980373;28;20027;-81
2021/03/21 09:12:28;;;;;;;21.55;10.52;;;-2.10;88.20;;;;;;4997092;28;20045;-80
2021/03/21 09:15:14;;;;;;;15.05;8.20;;;-2.20;87.30;;;;;;5007782;28;20041;-81
2021/03/21 09:17:39;;;;;;;21.50;8.52;;;-2.20;87.00;;;;;;4982645;28;20041;-81
2021/03/21 09:20:06;;;;;;;16.23;9.48;;;-2.30;87.00;;;;;;4983134;28;20046;-80
2021/03/21 09:22:40;;;;;;;25.13;10.38;;;-2.20;90.00;;;;;;4972203;28;20473;-80
2021/03/21 09:25:27;;;;;;;23.67;10.98;;;-2.30;89.10;;;;;;4992990;28;20065;-81
2021/03/21 09:27:55;;;;;;;19.88;8.77;;;-2.30;89.70;;;;;;5014532;28;20484;-80
2021/03/21 09:30:41;;;;;;;69.20;26.67;;;-2.30;90.00;;;;;;5001823;28;20037;-80
2021/03/21 09:33:27;;;;;;;32.92;13.10;;;-2.30;91.90;;;;;;5004351;28;20038;-79
2021/03/21 09:36:11;;;;;;;24.77;11.38;;;-2.30;93.70;;;;;;5020721;28;20434;-80
2021/03/21 09:38:49;;;;;;;16.00;9.18;;;-2.10;95.20;;;;;;4985367;28;20050;-80
2021/03/21 09:41:14;;;;;;;18.33;9.18;;;-2.10;91.90;;;;;;4973495;28;20401;-80
2021/03/21 09:43:42;;;;;;;18.27;10.23;;;-2.20;91.20;;;;;;4976236;28;20023;-80
2021/03/21 09:46:07;;;;;;;21.77;10.55;;;-2.10;91.70;;;;;;4988974;28;20038;-80
2021/03/21 09:48:37;;;;;;;15.50;9.18;;;-2.20;91.60;;;;;;4993612;28;20503;-81
2021/03/21 09:51:14;;;;;;;19.10;9.48;;;-2.20;92.90;;;;;;4992988;28;20057;-80
2021/03/21 09:53:48;;;;;;;21.38;10.75;;;-2.20;94.50;;;;;;4994004;28;20037;-80
2021/03/21 09:56:36;;;;;;;37.88;16.02;;;-2.20;94.70;;;;;;4998668;28;20522;-80
2021/03/21 09:59:19;;;;;;;39.85;16.55;;;-2.20;95.50;;;;;;4999275;28;20022;-80
2021/03/21 10:01:55;;;;;;;27.77;10.45;;;-2.20;94.90;;;;;;4977992;28;20014;-81
2021/03/21 10:04:38;;;;;;;25.98;10.32;;;-2.20;96.80;;;;;;4995034;28;20034;-82
2021/03/21 10:07:14;;;;;;;;;;;-2.20;97.30;;;;;;4998567;28;20026;-82
2021/03/21 10:09:43;;;;;;;21.20;11.27;;;-2.10;97.20;;;;;;4974115;28;19924;-81
2021/03/21 10:12:10;;;;;;;18.83;9.75;;;-2.10;97.20;;;;;;4977279;28;20047;-81
2021/03/21 10:14:36;;;;;;;16.65;9.27;;;-2.10;96.90;;;;;;4994016;28;20405;-80
2021/03/21 10:17:21;;;;;;;17.40;8.40;;;-2.10;97.50;;;;;;4992834;28;20023;-81
2021/03/21 10:19:56;;;;;;;22.75;10.60;;;-2.10;96.70;;;;;;4975523;28;20108;-80
2021/03/21 10:22:24;;;;;;;16.83;11.45;;;-2.10;97.20;;;;;;4982904;28;20034;-80
2021/03/21 10:24:55;;;;;;;17.33;11.77;;;-2.10;97.90;;;;;;4980710;28;20484;-80
2021/03/21 10:27:43;;;;;;;17.05;10.68;;;-2.10;98.20;;;;;;4993572;28;20404;-81
2021/03/21 10:30:14;;;;;;;20.23;11.45;;;-2.20;99.20;;;;;;4993102;28;20496;-80
2021/03/21 10:32:42;;;;;;;17.50;10.02;;;-2.20;99.60;;;;;;4974215;28;20038;-81
2021/03/21 10:35:34;;;;;;;17.98;10.57;;;-2.20;99.90;;;;;;4991797;28;20053;-82
2021/03/21 10:38:09;;;;;;;19.10;11.45;;;-2.10;99.90;;;;;;5007623;28;20085;-81
2021/03/21 10:40:35;;;;;;;18.85;11.45;;;-2.10;99.90;;;;;;4975235;28;20060;-81
2021/03/21 10:43:17;;;;;;;21.00;12.25;;;-2.00;99.90;;;;;;4974354;28;20070;-81
2021/03/21 10:45:42;;;;;;;28.67;14.85;;;-2.00;99.90;;;;;;4987376;28;20049;-80
2021/03/21 10:48:19;;;;;;;26.13;11.35;;;-2.10;99.90;;;;;;4984339;28;20030;-81
2021/03/21 10:51:04;;;;;;;18.33;12.65;;;-2.20;99.90;;;;;;4991260;28;20030;-80
2021/03/21 10:53:53;;;;;;;25.05;12.55;;;-2.30;99.90;;;;;;4991631;28;20444;-82
2021/03/21 10:56:20;;;;;;;21.13;11.90;;;-2.20;99.90;;;;;;4985519;28;20030;-80
2021/03/21 10:58:45;;;;;;;29.40;15.85;;;-2.20;99.90;;;;;;4971404;28;20113;-79
2021/03/21 11:01:20;;;;;;;38.53;19.80;;;-2.10;99.90;;;;;;4990420;28;20061;-79
2021/03/21 11:03:58;;;;;;;30.42;16.88;;;-2.10;99.90;;;;;;4989011;28;20046;-80
2021/03/21 11:06:26;;;;;;;31.85;15.35;;;-2.10;99.90;;;;;;5006249;28;20034;-80
2021/03/21 11:08:52;;;;;;;31.15;17.90;;;-2.10;99.90;;;;;;4994945;28;20051;-79
2021/03/21 11:11:32;;;;;;;36.55;16.55;;;-2.00;99.90;;;;;;4974081;28;20403;-79
2021/03/21 11:14:33;;;;;;;31.55;14.75;;;-2.10;99.90;;;;;;4992343;28;20132;-80
2021/03/21 11:17:18;;;;;;;27.33;14.82;;;-2.10;99.90;;;;;;4973349;28;20492;-80
2021/03/21 11:19:55;;;;;;;24.05;13.55;;;-2.00;99.90;;;;;;4996890;28;20464;-80
2021/03/21 11:22:26;;;;;;;28.63;14.70;;;-1.90;99.90;;;;;;5001365;28;20022;-80
2021/03/21 11:24:51;;;;;;;39.03;19.27;;;-1.80;96.40;;;;;;5011687;28;20033;-79
2021/03/21 11:27:32;;;;;;;37.60;16.98;;;-1.80;94.20;;;;;;4977511;28;20026;-80
2021/03/21 11:30:17;;;;;;;34.38;14.27;;;-1.80;94.30;;;;;;4994180;28;20030;-80
2021/03/21 11:32:43;;;;;;;32.20;17.13;;;-1.70;95.10;;;;;;4981089;28;20492;-80
2021/03/21 11:35:25;;;;;;;42.30;20.60;;;-1.60;95.00;;;;;;5000420;28;20031;-80
2021/03/21 11:37:55;;;;;;;27.38;12.82;;;-1.60;94.10;;;;;;4977167;28;20069;-81
2021/03/21 11:40:23;;;;;;;41.45;20.42;;;-1.60;94.60;;;;;;4981657;28;20025;-80
2021/03/21 11:43:07;;;;;;;42.28;20.52;;;-1.70;95.70;;;;;;4982083;28;20018;-80
2021/03/21 11:45:36;;;;;;;27.05;15.65;;;-1.60;97.00;;;;;;4985337;28;20117;-80
2021/03/21 11:48:08;;;;;;;28.58;13.07;;;-1.60;95.80;;;;;;5019857;28;20494;-80
2021/03/21 11:50:36;;;;;;;33.33;16.42;;;-1.60;94.70;;;;;;4971860;28;20416;-80
2021/03/21 11:53:06;;;;;;;59.80;27.67;;;-1.60;93.90;;;;;;4979981;28;20027;-80
2021/03/21 11:55:36;;;;;;;29.58;15.52;;;-1.50;95.30;;;;;;5000634;28;20488;-76
2021/03/21 11:58:25;;;;;;;40.42;15.70;;;-1.40;97.90;;;;;;4991942;28;20072;-76
2021/03/21 12:01:18;;;;;;;38.25;20.42;;;-1.50;96.60;;;;;;5008682;28;20096;-78
2021/03/21 12:04:04;;;;;;;51.45;23.27;;;-1.40;96.90;;;;;;4992794;28;20030;-76
2021/03/21 12:06:45;;;;;;;35.55;15.10;;;-1.40;97.30;;;;;;4997152;28;20033;-77
2021/03/21 12:09:31;;;;;;;31.15;15.25;;;-1.40;97.60;;;;;;4996178;28;20550;-77
2021/03/21 12:12:03;;;;;;;54.85;25.45;;;-1.30;98.40;;;;;;5000516;28;20037;-77
2021/03/21 12:14:35;;;;;;;;;;;-1.20;97.80;;;;;;4989934;28;20136;-77
2021/03/21 12:17:24;;;;;;;23.52;12.70;;;-1.20;96.50;;;;;;4993642;28;19916;-79
2021/03/21 12:19:51;;;;;;;21.25;11.35;;;-1.10;95.80;;;;;;5013748;28;20026;-78
2021/03/21 12:22:36;;;;;;;63.00;33.05;;;-1.10;94.90;;;;;;4980938;28;20022;-78
2021/03/21 12:25:27;;;;;;;19.60;11.60;;;-1.10;92.60;;;;;;4980770;28;20022;-77
2021/03/21 12:28:13;;;;;;;29.05;11.57;;;-1.20;91.50;;;;;;4980513;28;20038;-77
2021/03/21 12:30:49;;;;;;;42.00;19.02;;;-1.20;90.00;;;;;;4986691;28;20026;-79
2021/03/21 12:33:27;;;;;;;123.88;54.30;;;-1.20;91.70;;;;;;4969975;28;20042;-79
2021/03/21 12:36:05;;;;;;;30.58;14.82;;;-1.20;93.50;;;;;;4987142;28;20026;-81
2021/03/21 12:38:34;;;;;;;27.20;13.18;;;-1.20;91.10;;;;;;4988290;28;20439;-81
2021/03/21 12:41:34;;;;;;;54.53;26.42;;;-1.10;92.90;;;;;;4977959;28;20511;-80
2021/03/21 12:44:15;;;;;;;49.60;22.77;;;-1.00;92.00;;;;;;4992717;28;20028;-81
2021/03/21 12:47:13;;;;;;;30.00;14.65;;;-1.00;90.30;;;;;;4996275;28;20105;-79
2021/03/21 12:49:46;;;;;;;37.63;17.40;;;-1.10;89.90;;;;;;4980540;28;20034;-80
2021/03/21 12:52:15;;;;;;;79.50;39.72;;;-1.10;92.50;;;;;;4979842;28;20443;-80
2021/03/21 12:54:43;;;;;;;64.45;28.42;;;-1.10;92.50;;;;;;4980681;28;20033;-79
2021/03/21 12:57:11;;;;;;;23.95;14.35;;;-1.00;93.50;;;;;;5012240;28;20033;-79
2021/03/21 12:59:42;;;;;;;24.15;12.50;;;-1.00;93.70;;;;;;4979841;28;20038;-80
2021/03/21 13:02:36;;;;;;;22.13;12.82;;;-0.90;95.90;;;;;;4979057;28;20018;-80
2021/03/21 13:05:17;;;;;;;27.05;14.55;;;-0.90;96.30;;;;;;4995657;28;21356;-79
2021/03/21 13:07:42;;;;;;;56.25;27.20;;;-0.80;98.30;;;;;;5008108;28;20024;-79
2021/03/21 13:10:08;;;;;;;24.60;12.40;;;-0.90;99.90;;;;;;5004321;28;20089;-79
2021/03/21 13:12:34;;;;;;;22.73;11.93;;;-0.90;99.90;;;;;;5006899;28;20510;-79
2021/03/21 13:14:59;;;;;;;29.45;11.60;;;-0.80;99.90;;;;;;4979827;28;20471;-78
2021/03/21 13:17:25;;;;;;;22.08;11.65;;;-0.80;99.90;;;;;;4981492;28;20027;-78
2021/03/21 13:19:51;;;;;;;24.45;11.98;;;-0.80;99.90;;;;;;5004860;28;20060;-78